Junius, South Dakota
Current Conditions -  °F | °C
As of 11:35 AM on Friday 24 Oct 2014 (Local Time) from KMDS Reporting Station
Clear Clear  
Wind Chill: 16°   Ceiling: Unl
Heat Index: 16°   Visibility: 10mi
Dew Point: 13°   Wind: 7mph
Humidity: 82%   Direction: 310°NW
Pressure: 29.91"   Gusts: NA
Location:  43.9866°N, 97.1364°W
Report Text: KMDS 241635Z AUTO 31006KT 10SM CLR 16/13 A2991 RMK AO2
Loading
Personal Weather Stations






























Interactive Weather Map
Tropical Storm Tracking
New forecast layout! Learn more

10-Day Weather Forecast

Advertisements
Track Severe Weather on mobile